Piercetown, Arkansas
Current Conditions -  °F | °C
As of 5:53 PM on Saturday 20 Dec 2014 (Local Time) from KHRO Reporting Station
Overcast Overcast  
Wind Chill: 39°   Ceiling: 2500
Heat Index: 42°   Visibility: 10mi
Dew Point: 39°   Wind: 5mph
Humidity: 89%   Direction: 160°SSE
Pressure: 30.19"   Gusts: NA
Location:  36.0047°N, 93.218°W
Report Text: KHRO 202353Z AUTO 16004KT 10SM OVC025 06/04 A3019 RMK AO2 SLP227 T00560039 10061 20050 53002 $
Loading
Personal Weather Stations






























Interactive Weather Map New forecast layout! Learn more

10-Day Weather Forecast

Advertisements
Track Severe Weather on mobile